sensor_id;sensor_type;location;lat;lon;timestamp;P1;durP1;ratioP1;P2;durP2;ratioP2
78752;SDS011;68072;51.688;7.842;2023-03-01T00:00:37;10.05;;;5.20;;
78752;SDS011;68072;51.688;7.842;2023-03-01T00:03:02;7.72;;;5.03;;
78752;SDS011;68072;51.688;7.842;2023-03-01T00:05:27;9.13;;;5.47;;
78752;SDS011;68072;51.688;7.842;2023-03-01T00:07:53;7.40;;;4.82;;
78752;SDS011;68072;51.688;7.842;2023-03-01T00:10:18;9.40;;;5.75;;
78752;SDS011;68072;51.688;7.842;2023-03-01T00:12:44;8.80;;;5.50;;
78752;SDS011;68072;51.688;7.842;2023-03-01T00:15:09;11.25;;;6.03;;
78752;SDS011;68072;51.688;7.842;2023-03-01T00:17:35;9.38;;;5.40;;
78752;SDS011;68072;51.688;7.842;2023-03-01T00:20:00;8.38;;;5.20;;
78752;SDS011;68072;51.688;7.842;2023-03-01T00:22:26;10.18;;;6.00;;
78752;SDS011;68072;51.688;7.842;2023-03-01T00:24:53;9.13;;;5.53;;
78752;SDS011;68072;51.688;7.842;2023-03-01T00:27:18;7.40;;;5.45;;
78752;SDS011;68072;51.688;7.842;2023-03-01T00:29:43;10.00;;;5.28;;
78752;SDS011;68072;51.688;7.842;2023-03-01T00:32:09;8.20;;;4.88;;
78752;SDS011;68072;51.688;7.842;2023-03-01T00:34:34;8.40;;;5.20;;
78752;SDS011;68072;51.688;7.842;2023-03-01T00:37:00;10.85;;;5.60;;
78752;SDS011;68072;51.688;7.842;2023-03-01T00:39:31;7.88;;;4.95;;
78752;SDS011;68072;51.688;7.842;2023-03-01T00:41:58;11.52;;;4.95;;
78752;SDS011;68072;51.688;7.842;2023-03-01T00:44:23;10.18;;;5.70;;
78752;SDS011;68072;51.688;7.842;2023-03-01T00:46:49;11.40;;;5.82;;
78752;SDS011;68072;51.688;7.842;2023-03-01T00:49:14;9.75;;;5.65;;
78752;SDS011;68072;51.688;7.842;2023-03-01T00:51:39;8.80;;;5.10;;
78752;SDS011;68072;51.688;7.842;2023-03-01T00:54:09;9.20;;;5.43;;
78752;SDS011;68072;51.688;7.842;2023-03-01T00:56:35;9.85;;;6.25;;
78752;SDS011;68072;51.688;7.842;2023-03-01T00:59:00;10.07;;;5.57;;
78752;SDS011;68072;51.688;7.842;2023-03-01T01:01:27;9.93;;;5.57;;
78752;SDS011;68072;51.688;7.842;2023-03-01T01:03:57;8.40;;;5.78;;
78752;SDS011;68072;51.688;7.842;2023-03-01T01:06:31;9.25;;;5.97;;
78752;SDS011;68072;51.688;7.842;2023-03-01T01:08:58;11.10;;;6.03;;
78752;SDS011;68072;51.688;7.842;2023-03-01T01:11:24;9.77;;;5.35;;
78752;SDS011;68072;51.688;7.842;2023-03-01T01:13:52;10.25;;;5.18;;
78752;SDS011;68072;51.688;7.842;2023-03-01T01:16:18;10.20;;;5.65;;
78752;SDS011;68072;51.688;7.842;2023-03-01T01:18:44;12.73;;;5.38;;
78752;SDS011;68072;51.688;7.842;2023-03-01T01:21:11;14.05;;;5.97;;
78752;SDS011;68072;51.688;7.842;2023-03-01T01:23:38;9.23;;;5.93;;
78752;SDS011;68072;51.688;7.842;2023-03-01T01:26:04;10.55;;;6.53;;
78752;SDS011;68072;51.688;7.842;2023-03-01T01:28:40;8.55;;;5.68;;
78752;SDS011;68072;51.688;7.842;2023-03-01T01:31:06;6.55;;;5.00;;
78752;SDS011;68072;51.688;7.842;2023-03-01T01:33:32;11.73;;;6.10;;
78752;SDS011;68072;51.688;7.842;2023-03-01T01:35:57;10.75;;;6.05;;
78752;SDS011;68072;51.688;7.842;2023-03-01T01:38:23;12.55;;;5.95;;
78752;SDS011;68072;51.688;7.842;2023-03-01T01:40:49;9.57;;;5.95;;
78752;SDS011;68072;51.688;7.842;2023-03-01T01:43:23;11.20;;;6.50;;
78752;SDS011;68072;51.688;7.842;2023-03-01T01:45:51;10.85;;;6.50;;
78752;SDS011;68072;51.688;7.842;2023-03-01T01:48:20;8.90;;;6.13;;
78752;SDS011;68072;51.688;7.842;2023-03-01T01:50:50;9.80;;;5.95;;
78752;SDS011;68072;51.688;7.842;2023-03-01T01:53:20;12.02;;;6.82;;
78752;SDS011;68072;51.688;7.842;2023-03-01T01:55:47;11.85;;;6.72;;
78752;SDS011;68072;51.688;7.842;2023-03-01T01:58:15;11.63;;;6.25;;
78752;SDS011;68072;51.688;7.842;2023-03-01T02:00:43;12.20;;;6.07;;
78752;SDS011;68072;51.688;7.842;2023-03-01T02:03:13;10.68;;;5.93;;
78752;SDS011;68072;51.688;7.842;2023-03-01T02:08:29;17.05;;;7.28;;
78752;SDS011;68072;51.688;7.842;2023-03-01T02:10:57;11.27;;;6.38;;
78752;SDS011;68072;51.688;7.842;2023-03-01T02:13:24;12.57;;;6.50;;
78752;SDS011;68072;51.688;7.842;2023-03-01T02:15:50;11.82;;;6.03;;
78752;SDS011;68072;51.688;7.842;2023-03-01T02:18:16;9.73;;;6.13;;
78752;SDS011;68072;51.688;7.842;2023-03-01T02:21:02;10.40;;;6.38;;
78752;SDS011;68072;51.688;7.842;2023-03-01T02:23:33;10.90;;;6.15;;
78752;SDS011;68072;51.688;7.842;2023-03-01T02:26:06;10.07;;;5.45;;
78752;SDS011;68072;51.688;7.842;2023-03-01T02:28:36;10.23;;;6.15;;
78752;SDS011;68072;51.688;7.842;2023-03-01T02:31:06;11.77;;;6.40;;
78752;SDS011;68072;51.688;7.842;2023-03-01T02:33:50;11.50;;;6.55;;
78752;SDS011;68072;51.688;7.842;2023-03-01T02:36:18;12.13;;;7.18;;
78752;SDS011;68072;51.688;7.842;2023-03-01T02:38:46;11.65;;;6.43;;
78752;SDS011;68072;51.688;7.842;2023-03-01T02:41:13;11.40;;;6.47;;
78752;SDS011;68072;51.688;7.842;2023-03-01T02:43:40;11.10;;;6.03;;
78752;SDS011;68072;51.688;7.842;2023-03-01T02:46:07;12.02;;;6.13;;
78752;SDS011;68072;51.688;7.842;2023-03-01T02:48:42;10.70;;;6.35;;
78752;SDS011;68072;51.688;7.842;2023-03-01T02:54:08;11.93;;;6.05;;
78752;SDS011;68072;51.688;7.842;2023-03-01T02:56:38;10.02;;;5.68;;
78752;SDS011;68072;51.688;7.842;2023-03-01T02:59:04;10.95;;;6.13;;
78752;SDS011;68072;51.688;7.842;2023-03-01T03:01:30;10.25;;;5.72;;
78752;SDS011;68072;51.688;7.842;2023-03-01T03:04:06;10.90;;;5.63;;
78752;SDS011;68072;51.688;7.842;2023-03-01T03:06:33;15.45;;;7.35;;
78752;SDS011;68072;51.688;7.842;2023-03-01T03:08:58;13.57;;;7.03;;
78752;SDS011;68072;51.688;7.842;2023-03-01T03:11:24;17.55;;;7.10;;
78752;SDS011;68072;51.688;7.842;2023-03-01T03:13:49;10.32;;;5.78;;
78752;SDS011;68072;51.688;7.842;2023-03-01T03:16:16;10.07;;;5.85;;
78752;SDS011;68072;51.688;7.842;2023-03-01T03:18:41;10.50;;;6.47;;
78752;SDS011;68072;51.688;7.842;2023-03-01T03:21:08;13.75;;;7.03;;
78752;SDS011;68072;51.688;7.842;2023-03-01T03:23:35;13.55;;;6.75;;
78752;SDS011;68072;51.688;7.842;2023-03-01T03:26:01;12.07;;;5.93;;
78752;SDS011;68072;51.688;7.842;2023-03-01T03:28:29;10.95;;;6.40;;
78752;SDS011;68072;51.688;7.842;2023-03-01T03:30:55;13.00;;;6.85;;
78752;SDS011;68072;51.688;7.842;2023-03-01T03:33:21;10.23;;;6.00;;
78752;SDS011;68072;51.688;7.842;2023-03-01T03:35:47;12.63;;;6.78;;
78752;SDS011;68072;51.688;7.842;2023-03-01T03:38:14;16.00;;;7.43;;
78752;SDS011;68072;51.688;7.842;2023-03-01T03:40:43;11.43;;;5.82;;
78752;SDS011;68072;51.688;7.842;2023-03-01T03:43:15;11.48;;;6.35;;
78752;SDS011;68072;51.688;7.842;2023-03-01T03:45:41;15.60;;;6.78;;
78752;SDS011;68072;51.688;7.842;2023-03-01T03:48:07;12.18;;;6.25;;
78752;SDS011;68072;51.688;7.842;2023-03-01T03:50:34;16.30;;;7.00;;
78752;SDS011;68072;51.688;7.842;2023-03-01T03:53:00;13.40;;;7.18;;
78752;SDS011;68072;51.688;7.842;2023-03-01T03:55:26;14.45;;;6.82;;
78752;SDS011;68072;51.688;7.842;2023-03-01T03:57:56;11.18;;;5.88;;
78752;SDS011;68072;51.688;7.842;2023-03-01T04:00:22;14.15;;;6.40;;
78752;SDS011;68072;51.688;7.842;2023-03-01T04:02:49;17.27;;;6.75;;
78752;SDS011;68072;51.688;7.842;2023-03-01T04:05:16;12.30;;;6.47;;
78752;SDS011;68072;51.688;7.842;2023-03-01T04:07:42;14.30;;;7.30;;
78752;SDS011;68072;51.688;7.842;2023-03-01T04:10:09;11.35;;;6.22;;
78752;SDS011;68072;51.688;7.842;2023-03-01T04:12:39;10.23;;;6.05;;
78752;SDS011;68072;51.688;7.842;2023-03-01T04:15:05;12.23;;;7.13;;
78752;SDS011;68072;51.688;7.842;2023-03-01T04:17:45;11.35;;;6.28;;
78752;SDS011;68072;51.688;7.842;2023-03-01T04:20:12;12.05;;;5.78;;
78752;SDS011;68072;51.688;7.842;2023-03-01T04:22:39;12.32;;;6.80;;
78752;SDS011;68072;51.688;7.842;2023-03-01T04:25:05;14.93;;;6.47;;
78752;SDS011;68072;51.688;7.842;2023-03-01T04:27:35;12.07;;;6.60;;
78752;SDS011;68072;51.688;7.842;2023-03-01T04:30:01;13.50;;;6.65;;
78752;SDS011;68072;51.688;7.842;2023-03-01T04:32:28;11.93;;;6.72;;
78752;SDS011;68072;51.688;7.842;2023-03-01T04:34:53;12.60;;;7.30;;
78752;SDS011;68072;51.688;7.842;2023-03-01T04:37:19;12.10;;;6.45;;
78752;SDS011;68072;51.688;7.842;2023-03-01T04:39:44;16.70;;;7.78;;
78752;SDS011;68072;51.688;7.842;2023-03-01T04:42:13;11.43;;;6.57;;
78752;SDS011;68072;51.688;7.842;2023-03-01T04:44:42;14.98;;;7.57;;
78752;SDS011;68072;51.688;7.842;2023-03-01T04:47:07;14.20;;;6.88;;
78752;SDS011;68072;51.688;7.842;2023-03-01T04:49:33;14.63;;;7.25;;
78752;SDS011;68072;51.688;7.842;2023-03-01T04:51:58;12.60;;;7.20;;
78752;SDS011;68072;51.688;7.842;2023-03-01T04:54:27;15.02;;;7.80;;
78752;SDS011;68072;51.688;7.842;2023-03-01T04:56:53;13.32;;;7.07;;
78752;SDS011;68072;51.688;7.842;2023-03-01T04:59:18;12.43;;;6.80;;
78752;SDS011;68072;51.688;7.842;2023-03-01T05:01:47;11.23;;;6.18;;
78752;SDS011;68072;51.688;7.842;2023-03-01T05:04:16;13.35;;;6.50;;
78752;SDS011;68072;51.688;7.842;2023-03-01T05:06:41;13.68;;;7.15;;
78752;SDS011;68072;51.688;7.842;2023-03-01T05:09:07;12.05;;;6.70;;
78752;SDS011;68072;51.688;7.842;2023-03-01T05:11:32;20.55;;;7.45;;
78752;SDS011;68072;51.688;7.842;2023-03-01T05:16:30;12.98;;;6.65;;
78752;SDS011;68072;51.688;7.842;2023-03-01T05:18:56;11.82;;;6.40;;
78752;SDS011;68072;51.688;7.842;2023-03-01T05:21:22;14.00;;;7.40;;
78752;SDS011;68072;51.688;7.842;2023-03-01T05:23:47;15.48;;;7.53;;
78752;SDS011;68072;51.688;7.842;2023-03-01T05:26:13;15.20;;;6.85;;
78752;SDS011;68072;51.688;7.842;2023-03-01T05:28:39;13.63;;;7.70;;
78752;SDS011;68072;51.688;7.842;2023-03-01T05:31:04;16.42;;;7.85;;
78752;SDS011;68072;51.688;7.842;2023-03-01T05:33:35;12.45;;;6.72;;
78752;SDS011;68072;51.688;7.842;2023-03-01T05:36:04;12.35;;;7.55;;
78752;SDS011;68072;51.688;7.842;2023-03-01T05:38:30;13.25;;;7.32;;
78752;SDS011;68072;51.688;7.842;2023-03-01T05:40:56;14.98;;;8.20;;
78752;SDS011;68072;51.688;7.842;2023-03-01T05:43:21;19.88;;;7.10;;
78752;SDS011;68072;51.688;7.842;2023-03-01T05:45:46;15.98;;;7.38;;
78752;SDS011;68072;51.688;7.842;2023-03-01T05:48:12;16.02;;;7.70;;
78752;SDS011;68072;51.688;7.842;2023-03-01T05:50:42;16.70;;;7.65;;
78752;SDS011;68072;51.688;7.842;2023-03-01T05:53:12;14.95;;;7.47;;
78752;SDS011;68072;51.688;7.842;2023-03-01T05:55:40;15.38;;;7.40;;
78752;SDS011;68072;51.688;7.842;2023-03-01T05:58:09;17.20;;;7.78;;
78752;SDS011;68072;51.688;7.842;2023-03-01T06:00:37;11.82;;;6.78;;
78752;SDS011;68072;51.688;7.842;2023-03-01T06:03:02;14.18;;;7.63;;
78752;SDS011;68072;51.688;7.842;2023-03-01T06:05:29;17.83;;;8.48;;
78752;SDS011;68072;51.688;7.842;2023-03-01T06:07:54;12.35;;;7.15;;
78752;SDS011;68072;51.688;7.842;2023-03-01T06:10:21;13.45;;;7.18;;
78752;SDS011;68072;51.688;7.842;2023-03-01T06:12:47;14.93;;;7.53;;
78752;SDS011;68072;51.688;7.842;2023-03-01T06:15:13;10.60;;;6.63;;
78752;SDS011;68072;51.688;7.842;2023-03-01T06:17:40;18.45;;;8.23;;
78752;SDS011;68072;51.688;7.842;2023-03-01T06:22:40;11.27;;;6.40;;
78752;SDS011;68072;51.688;7.842;2023-03-01T06:25:06;17.75;;;8.27;;
78752;SDS011;68072;51.688;7.842;2023-03-01T06:27:31;32.65;;;12.63;;
78752;SDS011;68072;51.688;7.842;2023-03-01T06:29:57;26.45;;;12.98;;
78752;SDS011;68072;51.688;7.842;2023-03-01T06:32:22;26.75;;;11.50;;
78752;SDS011;68072;51.688;7.842;2023-03-01T06:34:48;23.67;;;11.25;;
78752;SDS011;68072;51.688;7.842;2023-03-01T06:37:13;21.48;;;10.43;;
78752;SDS011;68072;51.688;7.842;2023-03-01T06:39:38;20.08;;;10.80;;
78752;SDS011;68072;51.688;7.842;2023-03-01T06:42:04;24.42;;;9.68;;
78752;SDS011;68072;51.688;7.842;2023-03-01T06:44:29;19.75;;;9.48;;
78752;SDS011;68072;51.688;7.842;2023-03-01T06:46:55;18.02;;;9.13;;
78752;SDS011;68072;51.688;7.842;2023-03-01T06:49:20;18.13;;;8.23;;
78752;SDS011;68072;51.688;7.842;2023-03-01T06:51:46;19.25;;;9.43;;
78752;SDS011;68072;51.688;7.842;2023-03-01T06:54:11;20.70;;;9.70;;
78752;SDS011;68072;51.688;7.842;2023-03-01T06:56:37;19.80;;;9.18;;
78752;SDS011;68072;51.688;7.842;2023-03-01T06:59:03;20.73;;;9.32;;
78752;SDS011;68072;51.688;7.842;2023-03-01T07:01:29;26.55;;;10.30;;
78752;SDS011;68072;51.688;7.842;2023-03-01T07:03:54;22.90;;;10.73;;
78752;SDS011;68072;51.688;7.842;2023-03-01T07:06:20;22.38;;;10.43;;
78752;SDS011;68072;51.688;7.842;2023-03-01T07:08:46;18.27;;;9.63;;
78752;SDS011;68072;51.688;7.842;2023-03-01T07:11:12;17.30;;;9.15;;
78752;SDS011;68072;51.688;7.842;2023-03-01T07:13:37;18.92;;;9.27;;
78752;SDS011;68072;51.688;7.842;2023-03-01T07:16:03;20.10;;;8.73;;
78752;SDS011;68072;51.688;7.842;2023-03-01T07:18:28;18.55;;;9.05;;
78752;SDS011;68072;51.688;7.842;2023-03-01T07:20:54;14.18;;;8.70;;
78752;SDS011;68072;51.688;7.842;2023-03-01T07:23:19;15.30;;;8.00;;
78752;SDS011;68072;51.688;7.842;2023-03-01T07:25:51;13.73;;;7.63;;
78752;SDS011;68072;51.688;7.842;2023-03-01T07:28:17;17.65;;;8.48;;
78752;SDS011;68072;51.688;7.842;2023-03-01T07:30:43;17.25;;;8.43;;
78752;SDS011;68072;51.688;7.842;2023-03-01T07:33:08;16.50;;;7.55;;
78752;SDS011;68072;51.688;7.842;2023-03-01T07:35:33;13.93;;;7.60;;
78752;SDS011;68072;51.688;7.842;2023-03-01T07:37:59;11.98;;;6.97;;
78752;SDS011;68072;51.688;7.842;2023-03-01T07:40:24;10.70;;;7.05;;
78752;SDS011;68072;51.688;7.842;2023-03-01T07:42:54;14.00;;;6.90;;
78752;SDS011;68072;51.688;7.842;2023-03-01T07:45:20;12.75;;;7.10;;
78752;SDS011;68072;51.688;7.842;2023-03-01T07:47:45;9.50;;;6.72;;
78752;SDS011;68072;51.688;7.842;2023-03-01T07:50:11;15.95;;;6.35;;
78752;SDS011;68072;51.688;7.842;2023-03-01T07:52:36;9.75;;;6.07;;
78752;SDS011;68072;51.688;7.842;2023-03-01T07:55:02;8.80;;;6.13;;
78752;SDS011;68072;51.688;7.842;2023-03-01T07:57:27;10.38;;;5.82;;
78752;SDS011;68072;51.688;7.842;2023-03-01T07:59:52;8.70;;;5.63;;
78752;SDS011;68072;51.688;7.842;2023-03-01T08:02:18;13.75;;;7.30;;
78752;SDS011;68072;51.688;7.842;2023-03-01T08:04:43;12.45;;;6.63;;
78752;SDS011;68072;51.688;7.842;2023-03-01T08:07:09;7.57;;;5.32;;
78752;SDS011;68072;51.688;7.842;2023-03-01T08:09:35;10.55;;;6.00;;
78752;SDS011;68072;51.688;7.842;2023-03-01T08:12:02;10.55;;;6.50;;
78752;SDS011;68072;51.688;7.842;2023-03-01T08:14:29;7.88;;;5.20;;
78752;SDS011;68072;51.688;7.842;2023-03-01T08:16:54;10.90;;;5.93;;
78752;SDS011;68072;51.688;7.842;2023-03-01T08:19:20;8.27;;;5.65;;
78752;SDS011;68072;51.688;7.842;2023-03-01T08:21:45;10.27;;;6.00;;
78752;SDS011;68072;51.688;7.842;2023-03-01T08:24:11;10.98;;;5.68;;
78752;SDS011;68072;51.688;7.842;2023-03-01T08:26:36;11.82;;;7.18;;
78752;SDS011;68072;51.688;7.842;2023-03-01T08:29:02;12.38;;;6.28;;
78752;SDS011;68072;51.688;7.842;2023-03-01T08:36:28;13.07;;;5.25;;
78752;SDS011;68072;51.688;7.842;2023-03-01T08:38:55;10.25;;;6.03;;
78752;SDS011;68072;51.688;7.842;2023-03-01T08:41:20;14.20;;;6.45;;
78752;SDS011;68072;51.688;7.842;2023-03-01T08:43:46;10.82;;;5.97;;
78752;SDS011;68072;51.688;7.842;2023-03-01T08:46:11;9.63;;;5.88;;
78752;SDS011;68072;51.688;7.842;2023-03-01T08:48:37;9.20;;;6.20;;
78752;SDS011;68072;51.688;7.842;2023-03-01T08:51:10;7.78;;;5.32;;
78752;SDS011;68072;51.688;7.842;2023-03-01T08:53:38;12.38;;;6.03;;
78752;SDS011;68072;51.688;7.842;2023-03-01T08:56:04;8.93;;;5.50;;
78752;SDS011;68072;51.688;7.842;2023-03-01T08:58:30;10.52;;;5.80;;
78752;SDS011;68072;51.688;7.842;2023-03-01T09:00:55;12.00;;;5.97;;
78752;SDS011;68072;51.688;7.842;2023-03-01T09:03:24;9.00;;;5.60;;
78752;SDS011;68072;51.688;7.842;2023-03-01T09:05:50;9.13;;;4.85;;
78752;SDS011;68072;51.688;7.842;2023-03-01T09:08:17;7.57;;;4.75;;
78752;SDS011;68072;51.688;7.842;2023-03-01T09:10:42;9.65;;;5.18;;
78752;SDS011;68072;51.688;7.842;2023-03-01T09:13:08;9.50;;;5.32;;
78752;SDS011;68072;51.688;7.842;2023-03-01T09:15:36;12.07;;;5.07;;
78752;SDS011;68072;51.688;7.842;2023-03-01T09:18:02;10.82;;;5.78;;
78752;SDS011;68072;51.688;7.842;2023-03-01T09:20:27;8.73;;;5.28;;
78752;SDS011;68072;51.688;7.842;2023-03-01T09:22:53;8.13;;;5.40;;
78752;SDS011;68072;51.688;7.842;2023-03-01T09:25:18;8.85;;;5.10;;
78752;SDS011;68072;51.688;7.842;2023-03-01T09:27:43;5.38;;;3.83;;
78752;SDS011;68072;51.688;7.842;2023-03-01T09:30:09;7.95;;;4.75;;
78752;SDS011;68072;51.688;7.842;2023-03-01T09:32:35;5.75;;;4.18;;
78752;SDS011;68072;51.688;7.842;2023-03-01T09:35:00;7.57;;;3.97;;
78752;SDS011;68072;51.688;7.842;2023-03-01T09:37:28;7.07;;;4.38;;
78752;SDS011;68072;51.688;7.842;2023-03-01T09:39:54;7.20;;;4.25;;
78752;SDS011;68072;51.688;7.842;2023-03-01T09:42:19;11.15;;;4.88;;
78752;SDS011;68072;51.688;7.842;2023-03-01T09:44:49;9.55;;;4.55;;
78752;SDS011;68072;51.688;7.842;2023-03-01T09:47:21;8.50;;;5.25;;
78752;SDS011;68072;51.688;7.842;2023-03-01T09:52:46;9.35;;;4.78;;
78752;SDS011;68072;51.688;7.842;2023-03-01T09:55:37;10.68;;;7.00;;
78752;SDS011;68072;51.688;7.842;2023-03-01T09:58:25;10.85;;;5.80;;
78752;SDS011;68072;51.688;7.842;2023-03-01T10:01:23;8.13;;;4.78;;
78752;SDS011;68072;51.688;7.842;2023-03-01T10:04:05;8.98;;;4.22;;
78752;SDS011;68072;51.688;7.842;2023-03-01T10:06:35;8.25;;;4.45;;
78752;SDS011;68072;51.688;7.842;2023-03-01T10:09:01;5.75;;;3.78;;
78752;SDS011;68072;51.688;7.842;2023-03-01T10:11:37;7.72;;;4.38;;
78752;SDS011;68072;51.688;7.842;2023-03-01T10:17:03;7.85;;;4.50;;
78752;SDS011;68072;51.688;7.842;2023-03-01T10:19:31;6.30;;;3.65;;
78752;SDS011;68072;51.688;7.842;2023-03-01T10:22:00;8.32;;;4.78;;
78752;SDS011;68072;51.688;7.842;2023-03-01T10:24:28;8.10;;;4.10;;
78752;SDS011;68072;51.688;7.842;2023-03-01T10:26:57;6.97;;;4.10;;
78752;SDS011;68072;51.688;7.842;2023-03-01T10:29:34;7.45;;;3.88;;
78752;SDS011;68072;51.688;7.842;2023-03-01T10:32:04;7.10;;;3.72;;
78752;SDS011;68072;51.688;7.842;2023-03-01T10:34:33;9.43;;;4.10;;
78752;SDS011;68072;51.688;7.842;2023-03-01T10:37:18;8.35;;;4.30;;
78752;SDS011;68072;51.688;7.842;2023-03-01T10:42:31;9.50;;;4.65;;
78752;SDS011;68072;51.688;7.842;2023-03-01T10:44:58;6.22;;;4.43;;
78752;SDS011;68072;51.688;7.842;2023-03-01T10:47:40;6.40;;;4.63;;
78752;SDS011;68072;51.688;7.842;2023-03-01T10:50:23;7.47;;;4.82;;
78752;SDS011;68072;51.688;7.842;2023-03-01T10:52:55;6.32;;;4.22;;
78752;SDS011;68072;51.688;7.842;2023-03-01T10:55:28;8.45;;;4.50;;
78752;SDS011;68072;51.688;7.842;2023-03-01T11:00:32;9.70;;;5.22;;
78752;SDS011;68072;51.688;7.842;2023-03-01T11:05:24;7.13;;;4.80;;
78752;SDS011;68072;51.688;7.842;2023-03-01T11:10:27;8.55;;;4.75;;
78752;SDS011;68072;51.688;7.842;2023-03-01T11:13:06;9.40;;;4.88;;
78752;SDS011;68072;51.688;7.842;2023-03-01T11:15:33;9.30;;;5.10;;
78752;SDS011;68072;51.688;7.842;2023-03-01T11:17:59;9.20;;;5.35;;
78752;SDS011;68072;51.688;7.842;2023-03-01T11:20:35;8.88;;;4.95;;
78752;SDS011;68072;51.688;7.842;2023-03-01T11:23:03;8.75;;;4.97;;
78752;SDS011;68072;51.688;7.842;2023-03-01T11:25:33;7.72;;;4.13;;
78752;SDS011;68072;51.688;7.842;2023-03-01T11:28:01;8.88;;;4.70;;
78752;SDS011;68072;51.688;7.842;2023-03-01T11:30:31;6.20;;;4.22;;
78752;SDS011;68072;51.688;7.842;2023-03-01T11:35:57;6.63;;;4.18;;
78752;SDS011;68072;51.688;7.842;2023-03-01T11:38:27;8.68;;;4.28;;
78752;SDS011;68072;51.688;7.842;2023-03-01T12:09:07;6.07;;;4.25;;
78752;SDS011;68072;51.688;7.842;2023-03-01T12:11:39;7.03;;;4.40;;
78752;SDS011;68072;51.688;7.842;2023-03-01T12:24:53;8.18;;;4.63;;
78752;SDS011;68072;51.688;7.842;2023-03-01T12:36:10;9.15;;;4.72;;
78752;SDS011;68072;51.688;7.842;2023-03-01T12:38:57;7.07;;;4.43;;
78752;SDS011;68072;51.688;7.842;2023-03-01T12:47:30;7.00;;;4.22;;
78752;SDS011;68072;51.688;7.842;2023-03-01T12:52:43;5.80;;;3.55;;
78752;SDS011;68072;51.688;7.842;2023-03-01T13:20:50;6.95;;;4.40;;
78752;SDS011;68072;51.688;7.842;2023-03-01T13:31:03;9.85;;;4.85;;
78752;SDS011;68072;51.688;7.842;2023-03-01T13:35:55;7.87;;;4.47;;
78752;SDS011;68072;51.688;7.842;2023-03-01T13:38:37;8.18;;;4.95;;
78752;SDS011;68072;51.688;7.842;2023-03-01T13:41:14;7.93;;;4.60;;
78752;SDS011;68072;51.688;7.842;2023-03-01T13:43:41;5.43;;;3.88;;
78752;SDS011;68072;51.688;7.842;2023-03-01T13:46:09;10.18;;;4.80;;
78752;SDS011;68072;51.688;7.842;2023-03-01T13:48:49;8.90;;;5.00;;
78752;SDS011;68072;51.688;7.842;2023-03-01T13:51:20;8.45;;;4.55;;
78752;SDS011;68072;51.688;7.842;2023-03-01T13:56:15;10.40;;;4.03;;
78752;SDS011;68072;51.688;7.842;2023-03-01T14:03:53;8.25;;;4.68;;
78752;SDS011;68072;51.688;7.842;2023-03-01T14:06:23;5.47;;;3.70;;
78752;SDS011;68072;51.688;7.842;2023-03-01T14:08:52;5.60;;;4.10;;
78752;SDS011;68072;51.688;7.842;2023-03-01T14:19:23;5.43;;;3.80;;
78752;SDS011;68072;51.688;7.842;2023-03-01T14:24:52;7.15;;;3.63;;
78752;SDS011;68072;51.688;7.842;2023-03-01T14:27:20;8.20;;;3.75;;
78752;SDS011;68072;51.688;7.842;2023-03-01T14:29:57;5.50;;;3.85;;
78752;SDS011;68072;51.688;7.842;2023-03-01T14:32:25;8.30;;;4.10;;
78752;SDS011;68072;51.688;7.842;2023-03-01T14:34:54;6.80;;;3.78;;
78752;SDS011;68072;51.688;7.842;2023-03-01T14:37:27;6.10;;;3.65;;
78752;SDS011;68072;51.688;7.842;2023-03-01T14:39:54;8.32;;;3.50;;
78752;SDS011;68072;51.688;7.842;2023-03-01T14:44:47;5.95;;;3.25;;
78752;SDS011;68072;51.688;7.842;2023-03-01T14:47:15;4.05;;;2.88;;
78752;SDS011;68072;51.688;7.842;2023-03-01T14:49:58;6.85;;;2.95;;
78752;SDS011;68072;51.688;7.842;2023-03-01T14:52:31;4.63;;;2.70;;
78752;SDS011;68072;51.688;7.842;2023-03-01T14:55:02;3.35;;;2.72;;
78752;SDS011;68072;51.688;7.842;2023-03-01T14:57:30;4.13;;;3.00;;
78752;SDS011;68072;51.688;7.842;2023-03-01T14:59:58;4.10;;;3.15;;
78752;SDS011;68072;51.688;7.842;2023-03-01T15:02:26;7.32;;;3.28;;
78752;SDS011;68072;51.688;7.842;2023-03-01T15:04:54;3.80;;;2.70;;
78752;SDS011;68072;51.688;7.842;2023-03-01T15:07:26;5.13;;;3.15;;
78752;SDS011;68072;51.688;7.842;2023-03-01T15:09:54;5.72;;;3.70;;
78752;SDS011;68072;51.688;7.842;2023-03-01T15:12:39;4.65;;;3.40;;
78752;SDS011;68072;51.688;7.842;2023-03-01T15:17:53;4.38;;;3.25;;
78752;SDS011;68072;51.688;7.842;2023-03-01T15:20:20;5.40;;;3.40;;
78752;SDS011;68072;51.688;7.842;2023-03-01T15:22:50;6.68;;;3.80;;
78752;SDS011;68072;51.688;7.842;2023-03-01T15:25:17;5.65;;;3.45;;
78752;SDS011;68072;51.688;7.842;2023-03-01T15:27:45;6.63;;;4.10;;
78752;SDS011;68072;51.688;7.842;2023-03-01T15:32:44;5.15;;;3.40;;
78752;SDS011;68072;51.688;7.842;2023-03-01T15:40:56;8.50;;;3.92;;
78752;SDS011;68072;51.688;7.842;2023-03-01T15:43:39;7.47;;;3.58;;
78752;SDS011;68072;51.688;7.842;2023-03-01T15:46:25;4.30;;;3.03;;
78752;SDS011;68072;51.688;7.842;2023-03-01T15:48:54;3.42;;;3.03;;
78752;SDS011;68072;51.688;7.842;2023-03-01T15:51:26;5.15;;;3.47;;
78752;SDS011;68072;51.688;7.842;2023-03-01T15:53:54;4.47;;;3.55;;
78752;SDS011;68072;51.688;7.842;2023-03-01T15:56:20;4.78;;;3.20;;
78752;SDS011;68072;51.688;7.842;2023-03-01T15:58:46;8.63;;;3.33;;
78752;SDS011;68072;51.688;7.842;2023-03-01T16:01:16;5.05;;;3.53;;
78752;SDS011;68072;51.688;7.842;2023-03-01T16:03:42;6.45;;;2.83;;
78752;SDS011;68072;51.688;7.842;2023-03-01T16:06:08;5.15;;;3.28;;
78752;SDS011;68072;51.688;7.842;2023-03-01T16:08:35;5.07;;;3.00;;
78752;SDS011;68072;51.688;7.842;2023-03-01T16:11:00;8.40;;;3.28;;
78752;SDS011;68072;51.688;7.842;2023-03-01T16:13:29;7.88;;;3.90;;
78752;SDS011;68072;51.688;7.842;2023-03-01T16:15:56;5.13;;;3.58;;
78752;SDS011;68072;51.688;7.842;2023-03-01T16:18:22;5.28;;;2.78;;
78752;SDS011;68072;51.688;7.842;2023-03-01T16:20:47;6.10;;;3.75;;
78752;SDS011;68072;51.688;7.842;2023-03-01T16:23:14;3.97;;;3.33;;
78752;SDS011;68072;51.688;7.842;2023-03-01T16:25:40;5.28;;;3.10;;
78752;SDS011;68072;51.688;7.842;2023-03-01T16:28:05;3.85;;;2.88;;
78752;SDS011;68072;51.688;7.842;2023-03-01T16:30:36;3.70;;;2.50;;
78752;SDS011;68072;51.688;7.842;2023-03-01T16:33:02;4.53;;;3.08;;
78752;SDS011;68072;51.688;7.842;2023-03-01T16:35:31;7.10;;;3.10;;
78752;SDS011;68072;51.688;7.842;2023-03-01T16:37:57;6.60;;;3.60;;
78752;SDS011;68072;51.688;7.842;2023-03-01T16:40:25;6.13;;;2.92;;
78752;SDS011;68072;51.688;7.842;2023-03-01T16:42:52;6.57;;;3.30;;
78752;SDS011;68072;51.688;7.842;2023-03-01T16:45:20;5.20;;;3.45;;
78752;SDS011;68072;51.688;7.842;2023-03-01T16:47:45;6.07;;;2.92;;
78752;SDS011;68072;51.688;7.842;2023-03-01T16:50:11;5.07;;;3.55;;
78752;SDS011;68072;51.688;7.842;2023-03-01T16:52:36;4.45;;;3.20;;
78752;SDS011;68072;51.688;7.842;2023-03-01T16:55:02;4.75;;;3.05;;
78752;SDS011;68072;51.688;7.842;2023-03-01T16:57:29;4.22;;;3.00;;
78752;SDS011;68072;51.688;7.842;2023-03-01T16:59:55;4.55;;;2.97;;
78752;SDS011;68072;51.688;7.842;2023-03-01T17:02:20;6.07;;;3.08;;
78752;SDS011;68072;51.688;7.842;2023-03-01T17:04:55;5.63;;;3.47;;
78752;SDS011;68072;51.688;7.842;2023-03-01T17:07:21;5.20;;;3.30;;
78752;SDS011;68072;51.688;7.842;2023-03-01T17:09:46;6.03;;;3.50;;
78752;SDS011;68072;51.688;7.842;2023-03-01T17:12:13;4.32;;;3.30;;
78752;SDS011;68072;51.688;7.842;2023-03-01T17:14:38;4.28;;;3.25;;
78752;SDS011;68072;51.688;7.842;2023-03-01T17:17:06;7.15;;;3.20;;
78752;SDS011;68072;51.688;7.842;2023-03-01T17:19:32;6.25;;;3.35;;
78752;SDS011;68072;51.688;7.842;2023-03-01T17:21:58;4.22;;;3.28;;
78752;SDS011;68072;51.688;7.842;2023-03-01T17:24:25;5.55;;;3.42;;